Time;durP1;ratioP1;P1;durP2;ratioP2;P2;SDS_P1;SDS_P2;PMS_P1;PMS_P2;Temp;Humidity;BMP_temperature;BMP_pressure;BME280_temperature;BME280_humidity;BME280_pressure;Samples;Min_cycle;Max_cycle;Signal;HPM_P1;HPM_P2
2022/12/19 00:01:50;;;;;;;;;;;4.20;99.90;;;;;;5068757;28;19939;-71
2022/12/19 00:04:18;;;;;;;;;;;4.20;99.90;;;;;;5061815;28;19929;-71
2022/12/19 00:06:45;;;;;;;;;;;4.30;99.90;;;;;;5064480;28;19936;-71
2022/12/19 00:09:12;;;;;;;;;;;4.30;99.90;;;;;;5065827;28;19925;-72
2022/12/19 00:11:39;;;;;;;;;;;4.40;99.90;;;;;;5065343;28;20785;-71
2022/12/19 00:14:09;;;;;;;;;;;4.30;99.90;;;;;;5063765;28;19939;-71
2022/12/19 00:16:36;;;;;;;;;;;4.40;99.90;;;;;;5067787;28;20448;-71
2022/12/19 00:19:03;;;;;;;;;;;4.40;99.90;;;;;;5067469;28;19935;-70
2022/12/19 00:21:30;;;;;;;;;;;4.40;99.90;;;;;;5066779;28;19940;-70
2022/12/19 00:23:57;;;;;;;;;;;4.40;99.90;;;;;;5067500;28;20410;-72
2022/12/19 00:26:25;;;;;;;;;;;4.40;99.90;;;;;;5067315;28;19933;-72
2022/12/19 00:28:52;;;;;;;;;;;4.40;99.90;;;;;;5070893;28;19933;-72
2022/12/19 00:31:21;;;;;;;;;;;4.30;99.90;;;;;;5069680;28;20393;-71
2022/12/19 00:33:48;;;;;;;;;;;4.40;99.90;;;;;;5068612;28;19943;-72
2022/12/19 00:36:16;;;;;;;;;;;4.40;99.90;;;;;;5068049;28;20425;-71
2022/12/19 00:38:43;;;;;;;;;;;4.40;99.90;;;;;;5068257;28;19932;-72
2022/12/19 00:41:10;;;;;;;;;;;4.40;99.90;;;;;;5068651;28;20454;-71
2022/12/19 00:43:38;;;;;;;;;;;4.40;99.90;;;;;;5069993;28;20482;-71
2022/12/19 00:46:06;;;;;;;;;;;4.40;99.90;;;;;;5068840;28;20033;-71
2022/12/19 00:48:35;;;;;;;;;;;4.40;99.90;;;;;;5068503;28;20285;-72
2022/12/19 00:51:02;;;;;;;;;;;4.40;99.90;;;;;;5068083;28;19924;-72
2022/12/19 00:53:29;;;;;;;;;;;4.40;99.90;;;;;;5068492;28;19929;-71
2022/12/19 00:55:56;;;;;;;;;;;4.50;99.90;;;;;;5070281;28;19928;-72
2022/12/19 00:58:23;;;;;;;;;;;4.50;99.90;;;;;;5068093;28;19933;-71
2022/12/19 01:00:49;;;;;;;;;;;4.50;99.90;;;;;;5068753;28;19924;-71
2022/12/19 01:03:16;;;;;;;;;;;4.50;99.90;;;;;;5066618;28;20522;-71
2022/12/19 01:05:44;;;;;;;;;;;4.50;99.90;;;;;;5068316;28;19928;-71
2022/12/19 01:08:11;;;;;;;;;;;4.50;99.90;;;;;;5068873;28;19940;-74
2022/12/19 01:10:37;;;;;;;;;;;4.60;99.90;;;;;;5067767;28;19931;-71
2022/12/19 01:13:03;;;;;;;;;;;4.60;99.90;;;;;;5068814;28;19935;-72
2022/12/19 01:15:30;;;;;;;;;;;4.60;99.90;;;;;;5068268;28;20307;-71
2022/12/19 01:17:56;;;;;;;;;;;4.60;99.90;;;;;;5069960;28;20010;-72
2022/12/19 01:20:23;;;;;;;;;;;4.60;99.90;;;;;;5067544;28;19928;-71
2022/12/19 01:22:51;;;;;;;;;;;4.70;99.90;;;;;;5069537;28;20035;-71
2022/12/19 01:25:18;;;;;;;;;;;4.70;99.90;;;;;;5068065;28;19934;-72
2022/12/19 01:27:44;;;;;;;;;;;4.80;99.90;;;;;;5069352;28;20022;-69
2022/12/19 01:30:12;;;;;;;;;;;4.80;99.90;;;;;;5071157;28;19959;-73
2022/12/19 01:32:38;;;;;;;;;;;4.80;99.90;;;;;;5066881;28;19990;-72
2022/12/19 01:35:06;;;;;;;;;;;4.80;99.90;;;;;;5066572;28;20019;-71
2022/12/19 01:37:32;;;;;;;;;;;4.90;99.90;;;;;;5069516;28;19928;-72
2022/12/19 01:40:00;;;;;;;;;;;5.00;99.90;;;;;;5068877;28;20038;-72
2022/12/19 01:42:33;;;;;;;;;;;4.90;99.90;;;;;;5066982;28;19942;-72
2022/12/19 01:45:21;;;;;;;;;;;5.00;99.90;;;;;;5066500;28;19935;-74
2022/12/19 01:47:50;;;;;;;;;;;5.10;99.90;;;;;;5063764;28;20370;-71
2022/12/19 01:50:19;;;;;;;;;;;5.10;99.90;;;;;;5068419;28;19951;-73
2022/12/19 01:52:46;;;;;;;;;;;5.20;99.90;;;;;;5070712;28;19928;-72
2022/12/19 01:55:14;;;;;;;;;;;5.20;99.90;;;;;;5067552;28;21623;-73
2022/12/19 01:57:41;;;;;;;;;;;5.30;99.90;;;;;;5067722;28;19928;-72
2022/12/19 02:00:09;;;;;;;;;;;5.30;99.90;;;;;;5067908;28;19928;-71
2022/12/19 02:02:37;;;;;;;;;;;5.40;99.90;;;;;;5066288;28;20405;-71
2022/12/19 02:05:05;;;;;;;;;;;5.40;99.90;;;;;;5068933;28;19928;-71
2022/12/19 02:07:32;;;;;;;;;;;5.40;99.90;;;;;;5068884;28;19932;-71
2022/12/19 02:09:59;;;;;;;;;;;5.50;99.90;;;;;;5068663;28;20035;-70
2022/12/19 02:12:29;;;;;;;;;;;5.50;99.90;;;;;;5066263;28;20327;-70
2022/12/19 02:14:57;;;;;;;;;;;5.50;99.90;;;;;;5067812;28;19962;-70
2022/12/19 02:17:26;;;;;;;;;;;5.50;99.90;;;;;;5067145;28;19938;-70
2022/12/19 02:20:12;;;;;;;;;;;5.60;99.90;;;;;;5068393;28;20316;-72
2022/12/19 02:22:46;;;;;;;;;;;5.60;99.90;;;;;;5065999;28;20014;-72
2022/12/19 02:25:33;;;;;;;;;;;5.60;99.90;;;;;;5066508;28;19939;-72
2022/12/19 02:28:16;;;;;;;;;;;5.70;99.90;;;;;;5068446;28;19933;-74
2022/12/19 02:30:49;;;;;;;;;;;5.70;99.90;;;;;;5067309;28;19929;-71
2022/12/19 02:33:18;;;;;;;;;;;5.70;99.90;;;;;;5067213;28;20387;-71
2022/12/19 02:35:46;;;;;;;;;;;5.70;99.90;;;;;;5065592;28;19988;-71
2022/12/19 02:38:16;;;;;;;;;;;5.80;99.90;;;;;;5064378;28;19928;-71
2022/12/19 02:40:44;;;;;;;;;;;5.80;99.90;;;;;;5065076;28;19928;-72
2022/12/19 02:43:12;;;;;;;;;;;5.80;99.90;;;;;;5065578;28;19977;-71
2022/12/19 02:45:39;;;;;;;;;;;5.80;99.90;;;;;;5066342;28;19924;-71
2022/12/19 02:48:08;;;;;;;;;;;5.80;99.90;;;;;;5065859;28;20011;-71
2022/12/19 02:50:36;;;;;;;;;;;5.80;99.90;;;;;;5066500;28;20362;-72
2022/12/19 02:53:02;;;;;;;;;;;5.80;99.90;;;;;;5065009;28;20298;-72
2022/12/19 02:55:30;;;;;;;;;;;5.80;99.90;;;;;;5067214;28;20306;-72
2022/12/19 02:58:05;;;;;;;;;;;5.80;99.90;;;;;;5066072;28;19929;-73
2022/12/19 03:00:32;;;;;;;;;;;5.80;99.90;;;;;;5065310;28;20306;-72
2022/12/19 03:03:05;;;;;;;;;;;5.80;99.90;;;;;;5067440;28;20595;-72
2022/12/19 03:05:36;;;;;;;;;;;5.80;99.90;;;;;;5066202;28;20415;-72
2022/12/19 03:08:06;;;;;;;;;;;5.80;99.90;;;;;;5066858;28;19933;-71
2022/12/19 03:10:35;;;;;;;;;;;5.80;99.90;;;;;;5066148;28;19932;-72
2022/12/19 03:13:06;;;;;;;;;;;5.80;99.90;;;;;;5066160;28;19932;-72
2022/12/19 03:15:33;;;;;;;;;;;5.80;99.90;;;;;;5067014;28;19950;-72
2022/12/19 03:18:00;;;;;;;;;;;5.80;99.90;;;;;;5065879;28;19938;-72
2022/12/19 03:20:32;;;;;;;;;;;5.80;99.90;;;;;;5068207;28;20008;-72
2022/12/19 03:23:00;;;;;;;;;;;5.80;99.90;;;;;;5067737;28;20023;-71
2022/12/19 03:25:29;;;;;;;;;;;5.80;99.90;;;;;;5065676;28;19939;-72
2022/12/19 03:27:58;;;;;;;;;;;5.80;99.90;;;;;;5068036;28;19939;-70
2022/12/19 03:30:25;;;;;;;;;;;5.90;99.90;;;;;;5069221;28;20027;-69
2022/12/19 03:32:52;;;;;;;;;;;5.90;99.90;;;;;;5065513;28;19960;-71
2022/12/19 03:35:21;;;;;;;;;;;5.90;99.90;;;;;;5067405;28;19931;-70
2022/12/19 03:37:49;;;;;;;;;;;5.90;99.90;;;;;;5066217;28;19932;-70
2022/12/19 03:40:19;;;;;;;;;;;6.00;99.90;;;;;;5067232;28;19938;-70
2022/12/19 03:45:33;;;;;;;;;;;6.10;99.90;;;;;;5066802;28;19938;-71
2022/12/19 03:48:02;;;;;;;;;;;6.10;99.90;;;;;;5065651;28;19929;-71
2022/12/19 03:50:31;;;;;;;;;;;6.10;99.90;;;;;;5065325;28;19932;-70
2022/12/19 03:53:01;;;;;;;;;;;6.20;99.90;;;;;;5065322;28;19932;-71
2022/12/19 03:55:31;;;;;;;;;;;6.20;99.90;;;;;;5067552;28;20873;-71
2022/12/19 03:58:00;;;;;;;;;;;6.20;99.90;;;;;;5067343;28;19939;-71
2022/12/19 04:00:27;;;;;;;;;;;6.20;99.90;;;;;;5067858;28;20287;-71
2022/12/19 04:02:55;;;;;;;;;;;6.30;99.90;;;;;;5069266;28;20397;-70
2022/12/19 04:05:23;;;;;;;;;;;6.40;99.90;;;;;;5069694;28;19928;-71
2022/12/19 04:07:50;;;;;;;;;;;6.40;99.90;;;;;;5069996;28;19925;-71
2022/12/19 04:10:19;;;;;;;;;;;6.40;99.90;;;;;;5072658;28;19966;-71
2022/12/19 04:12:48;;;;;;;;;;;6.50;99.90;;;;;;5067883;28;19928;-70
2022/12/19 04:15:15;;;;;;;;;;;6.50;99.90;;;;;;5071722;28;19931;-71
2022/12/19 04:17:44;;;;;;;;;;;6.60;99.90;;;;;;5069185;28;19935;-71
2022/12/19 04:20:12;;;;;;;;;;;6.60;99.90;;;;;;5069984;28;19928;-71
2022/12/19 04:22:41;;;;;;;;;;;6.50;99.90;;;;;;5069079;28;19932;-70
2022/12/19 04:25:09;;;;;;;;;;;6.60;99.90;;;;;;5072747;28;19933;-70
2022/12/19 04:27:38;;;;;;;;;;;6.60;99.90;;;;;;5071095;28;19931;-70
2022/12/19 04:30:07;;;;;;;;;;;6.60;99.90;;;;;;5071159;28;19930;-71
2022/12/19 04:32:35;;;;;;;;;;;6.70;99.90;;;;;;5069894;28;19932;-70
2022/12/19 04:35:02;;;;;;;;;;;6.70;99.90;;;;;;5069005;28;19954;-70
2022/12/19 04:37:30;;;;;;;;;;;6.70;99.90;;;;;;5069385;28;19928;-70
2022/12/19 04:39:58;;;;;;;;;;;6.70;99.90;;;;;;5069964;28;20019;-71
2022/12/19 04:42:24;;;;;;;;;;;6.70;99.90;;;;;;5067800;28;20387;-70
2022/12/19 04:44:51;;;;;;;;;;;6.70;99.90;;;;;;5070787;28;20024;-72
2022/12/19 04:47:19;;;;;;;;;;;6.70;99.90;;;;;;5068397;28;20037;-72
2022/12/19 04:49:46;;;;;;;;;;;6.80;99.90;;;;;;5069883;28;19924;-72
2022/12/19 04:52:12;;;;;;;;;;;6.80;99.90;;;;;;5067318;28;20579;-72
2022/12/19 04:54:39;;;;;;;;;;;6.80;99.90;;;;;;5068062;28;19959;-72
2022/12/19 04:57:06;;;;;;;;;;;6.80;99.90;;;;;;5067187;28;19928;-71
2022/12/19 04:59:32;;;;;;;;;;;6.80;99.90;;;;;;5067457;28;20363;-70
2022/12/19 05:01:59;;;;;;;;;;;6.80;99.90;;;;;;5068214;28;19956;-70
2022/12/19 05:04:27;;;;;;;;;;;6.80;99.90;;;;;;5068438;28;19931;-71
2022/12/19 05:06:57;;;;;;;;;;;6.80;99.90;;;;;;5067671;28;19974;-72
2022/12/19 05:09:24;;;;;;;;;;;6.80;99.90;;;;;;5073337;28;19928;-72
2022/12/19 05:11:50;;;;;;;;;;;6.80;99.90;;;;;;5064629;28;19935;-72
2022/12/19 05:14:17;;;;;;;;;;;6.90;99.90;;;;;;5069457;28;19938;-72
2022/12/19 05:16:43;;;;;;;;;;;6.90;99.90;;;;;;5067003;28;19932;-71
2022/12/19 05:19:10;;;;;;;;;;;6.90;99.90;;;;;;5067942;28;19924;-71
2022/12/19 05:21:38;;;;;;;;;;;6.90;99.90;;;;;;5067844;28;19925;-70
2022/12/19 05:24:05;;;;;;;;;;;6.90;99.90;;;;;;5068363;28;21040;-70
2022/12/19 05:26:32;;;;;;;;;;;7.00;99.90;;;;;;5067456;28;20346;-71
2022/12/19 05:28:58;;;;;;;;;;;6.90;99.90;;;;;;5067829;28;20345;-71
2022/12/19 05:31:25;;;;;;;;;;;7.00;99.90;;;;;;5067429;28;19938;-70
2022/12/19 05:33:52;;;;;;;;;;;7.00;99.90;;;;;;5064918;28;19924;-71
2022/12/19 05:36:19;;;;;;;;;;;7.00;99.90;;;;;;5065073;28;20401;-71
2022/12/19 05:38:47;;;;;;;;;;;6.90;99.90;;;;;;5064516;28;19935;-71
2022/12/19 05:41:14;;;;;;;;;;;7.00;99.90;;;;;;5066969;28;20026;-71
2022/12/19 05:43:40;;;;;;;;;;;7.00;99.90;;;;;;5068127;28;19942;-71
2022/12/19 05:46:07;;;;;;;;;;;7.00;99.90;;;;;;5068365;28;19940;-73
2022/12/19 05:48:34;;;;;;;;;;;6.90;99.90;;;;;;5068217;28;19960;-73
2022/12/19 05:51:01;;;;;;;;;;;6.90;99.90;;;;;;5066442;28;20447;-72
2022/12/19 05:53:28;;;;;;;;;;;7.00;99.90;;;;;;5069414;28;19928;-72
2022/12/19 05:56:03;;;;;;;;;;;7.00;99.90;;;;;;5068339;28;20966;-70
2022/12/19 05:58:30;;;;;;;;;;;7.00;99.90;;;;;;5069251;28;20125;-69
2022/12/19 06:01:01;;;;;;;;;;;7.10;99.90;;;;;;5067104;28;19932;-73
2022/12/19 06:03:27;;;;;;;;;;;7.10;99.90;;;;;;5068602;28;19951;-72
2022/12/19 06:05:54;;;;;;;;;;;7.10;99.90;;;;;;5067359;28;20019;-73
2022/12/19 06:08:21;;;;;;;;;;;7.20;99.90;;;;;;5068551;28;19931;-73
2022/12/19 06:10:48;;;;;;;;;;;7.20;99.90;;;;;;5071846;28;20374;-71
2022/12/19 06:13:16;;;;;;;;;;;7.10;99.90;;;;;;5066841;28;20019;-73
2022/12/19 06:15:42;;;;;;;;;;;7.10;99.90;;;;;;5065240;28;19978;-71
2022/12/19 06:18:09;;;;;;;;;;;7.20;99.90;;;;;;5069586;28;20033;-71
2022/12/19 06:20:36;;;;;;;;;;;7.20;99.90;;;;;;5075492;28;20016;-72
2022/12/19 06:23:02;;;;;;;;;;;7.20;99.90;;;;;;5087322;28;20023;-72
2022/12/19 06:25:29;;;;;;;;;;;7.20;99.90;;;;;;5071944;28;19928;-72
2022/12/19 06:27:55;;;;;;;;;;;7.20;99.90;;;;;;5083169;28;20251;-71
2022/12/19 06:30:23;;;;;;;;;;;7.20;99.90;;;;;;5101834;28;20009;-71
2022/12/19 06:32:50;;;;;;;;;;;7.30;99.90;;;;;;5084985;28;19924;-72
2022/12/19 06:35:17;;;;;;;;;;;7.30;99.90;;;;;;5068745;28;19935;-72
2022/12/19 06:37:44;;;;;;;;;;;7.30;99.90;;;;;;5067310;28;19985;-72
2022/12/19 06:42:21;;;;;;;;;;;7.30;99.90;;;;;;5067154;28;19929;-73
2022/12/19 06:42:58;;;;;;;;;;;7.30;99.90;;;;;;5067195;28;19986;-72
2022/12/19 06:45:26;;;;;;;;;;;7.30;99.90;;;;;;5069190;28;19924;-72
2022/12/19 06:47:52;;;;;;;;;;;7.40;99.90;;;;;;5068597;28;20031;-73
2022/12/19 06:50:19;;;;;;;;;;;7.30;99.90;;;;;;5067622;28;19928;-72
2022/12/19 06:52:46;;;;;;;;;;;7.30;99.90;;;;;;5068495;28;20341;-72
2022/12/19 06:55:12;;;;;;;;;;;7.40;99.90;;;;;;5067084;28;20298;-73
2022/12/19 06:57:44;;;;;;;;;;;7.40;99.90;;;;;;5064547;28;19982;-72
2022/12/19 07:00:12;;;;;;;;;;;7.40;99.90;;;;;;5068116;28;20574;-73
2022/12/19 07:02:40;;;;;;;;;;;7.40;99.90;;;;;;5068306;28;20019;-73
2022/12/19 07:05:07;;;;;;;;;;;7.40;99.90;;;;;;5069665;28;20039;-73
2022/12/19 07:07:35;;;;;;;;;;;7.40;99.90;;;;;;5068561;28;20018;-74
2022/12/19 07:10:02;;;;;;;;;;;7.40;99.90;;;;;;5072332;28;19926;-70
2022/12/19 07:12:28;;;;;;;;;;;7.50;99.90;;;;;;5065316;28;21495;-72
2022/12/19 07:14:55;;;;;;;;;;;7.50;99.90;;;;;;5070475;28;19928;-72
2022/12/19 07:17:23;;;;;;;;;;;7.60;99.90;;;;;;5066496;28;20023;-72
2022/12/19 07:19:52;;;;;;;;;;;7.60;99.90;;;;;;5065761;28;19960;-72
2022/12/19 07:22:19;;;;;;;;;;;7.60;99.90;;;;;;5068752;28;19958;-71
2022/12/19 07:24:46;;;;;;;;;;;7.60;99.90;;;;;;5066717;28;19934;-72
2022/12/19 07:27:12;;;;;;;;;;;7.50;99.90;;;;;;5066386;28;20485;-72
2022/12/19 07:29:39;;;;;;;;;;;7.60;99.90;;;;;;5067473;28;19932;-72
2022/12/19 07:32:06;;;;;;;;;;;7.50;99.90;;;;;;5065377;28;20043;-74
2022/12/19 07:34:33;;;;;;;;;;;7.60;99.90;;;;;;5067759;28;19933;-73
2022/12/19 07:37:01;;;;;;;;;;;7.60;99.90;;;;;;5068192;28;20059;-72
2022/12/19 07:39:27;;;;;;;;;;;7.70;99.90;;;;;;5069540;28;20428;-73
2022/12/19 07:41:54;;;;;;;;;;;7.70;99.90;;;;;;5070077;28;20019;-72
2022/12/19 07:44:21;;;;;;;;;;;7.70;99.90;;;;;;5071834;28;19924;-73
2022/12/19 07:46:47;;;;;;;;;;;7.70;99.90;;;;;;5069523;28;20459;-73
2022/12/19 07:49:14;;;;;;;;;;;7.70;99.90;;;;;;5068751;28;20327;-72
2022/12/19 07:51:41;;;;;;;;;;;7.80;99.90;;;;;;5069193;28;20027;-73
2022/12/19 07:54:09;;;;;;;;;;;7.70;99.90;;;;;;5069343;28;19942;-71
2022/12/19 07:56:36;;;;;;;;;;;7.80;99.90;;;;;;5070169;28;20310;-70
2022/12/19 07:59:02;;;;;;;;;;;7.80;99.90;;;;;;5069437;28;20416;-72
2022/12/19 08:01:29;;;;;;;;;;;7.80;99.90;;;;;;5070503;28;19928;-71
2022/12/19 08:03:58;;;;;;;;;;;7.80;99.90;;;;;;5072039;28;19935;-73
2022/12/19 08:06:24;;;;;;;;;;;7.80;99.90;;;;;;5065758;28;19972;-73
2022/12/19 08:08:51;;;;;;;;;;;7.90;99.90;;;;;;5070597;28;19944;-73
2022/12/19 08:11:25;;;;;;;;;;;7.90;99.90;;;;;;5066666;28;19932;-73
2022/12/19 08:13:52;;;;;;;;;;;7.90;99.90;;;;;;5066015;28;19928;-71
2022/12/19 08:16:19;;;;;;;;;;;7.90;99.90;;;;;;5066695;28;20448;-72
2022/12/19 08:18:46;;;;;;;;;;;7.90;99.90;;;;;;5067524;28;19939;-72
2022/12/19 08:21:13;;;;;;;;;;;8.00;99.90;;;;;;5064474;28;19955;-73
2022/12/19 08:23:40;;;;;;;;;;;8.00;99.90;;;;;;5064172;28;20347;-74
2022/12/19 08:26:08;;;;;;;;;;;8.00;99.90;;;;;;5065073;28;19932;-74
2022/12/19 08:28:36;;;;;;;;;;;8.10;99.90;;;;;;5065586;28;20006;-75
2022/12/19 08:31:06;;;;;;;;;;;8.10;99.90;;;;;;5069925;28;20065;-75
2022/12/19 08:33:32;;;;;;;;;;;8.20;99.90;;;;;;5067014;28;19932;-74
2022/12/19 08:36:02;;;;;;;;;;;8.20;99.90;;;;;;5068578;28;20551;-75
2022/12/19 08:38:29;;;;;;;;;;;8.10;99.90;;;;;;5066713;28;20376;-74
2022/12/19 08:40:56;;;;;;;;;;;8.20;99.90;;;;;;5064450;28;19943;-75
2022/12/19 08:43:23;;;;;;;;;;;8.20;99.90;;;;;;5064887;28;19928;-74
2022/12/19 08:45:51;;;;;;;;;;;8.20;99.90;;;;;;5065822;28;20438;-75
2022/12/19 08:48:18;;;;;;;;;;;8.30;99.90;;;;;;5068923;28;19935;-75
2022/12/19 08:50:49;;;;;;;;;;;8.30;99.90;;;;;;5069282;28;20493;-74
2022/12/19 08:53:16;;;;;;;;;;;8.30;99.90;;;;;;5068040;28;19928;-75
2022/12/19 08:55:42;;;;;;;;;;;8.40;99.90;;;;;;5065079;28;19943;-73
2022/12/19 08:58:09;;;;;;;;;;;8.40;99.90;;;;;;5067166;28;19928;-74
2022/12/19 09:00:36;;;;;;;;;;;8.40;99.90;;;;;;5066718;28;19938;-73
2022/12/19 09:03:04;;;;;;;;;;;8.40;99.90;;;;;;5066833;28;19932;-72
2022/12/19 09:05:31;;;;;;;;;;;8.50;99.90;;;;;;5066322;28;20286;-74
2022/12/19 09:07:58;;;;;;;;;;;8.50;99.90;;;;;;5063815;28;19932;-74
2022/12/19 09:10:24;;;;;;;;;;;8.50;99.90;;;;;;5068239;28;20282;-71
2022/12/19 09:12:51;;;;;;;;;;;8.50;99.90;;;;;;5061170;28;20003;-74
2022/12/19 09:15:18;;;;;;;;;;;8.50;99.90;;;;;;5065240;28;19927;-73
2022/12/19 09:17:44;;;;;;;;;;;8.50;99.90;;;;;;5068195;28;19928;-74
2022/12/19 09:20:13;;;;;;;;;;;8.50;99.90;;;;;;5066265;28;19932;-73
2022/12/19 09:22:39;;;;;;;;;;;8.50;99.90;;;;;;5065968;28;20849;-74
2022/12/19 09:25:07;;;;;;;;;;;8.60;99.90;;;;;;5067476;28;20558;-73
2022/12/19 09:27:33;;;;;;;;;;;8.60;99.90;;;;;;5065258;28;19979;-73
2022/12/19 09:30:00;;;;;;;;;;;8.50;99.90;;;;;;5067472;28;19928;-73
2022/12/19 09:32:27;;;;;;;;;;;8.50;99.90;;;;;;5065116;28;19936;-73
2022/12/19 09:34:54;;;;;;;;;;;8.50;99.90;;;;;;5066542;28;20019;-73
2022/12/19 09:37:22;;;;;;;;;;;8.40;99.90;;;;;;5064684;28;19929;-73
2022/12/19 09:39:48;;;;;;;;;;;8.30;99.90;;;;;;5064220;28;20074;-74
2022/12/19 09:42:36;;;;;;;;;;;8.30;99.90;;;;;;5065543;28;20029;-75
2022/12/19 09:45:11;;;;;;;;;;;8.20;99.90;;;;;;5064133;28;19934;-74
2022/12/19 09:47:39;;;;;;;;;;;8.20;99.90;;;;;;5063199;28;19932;-75
2022/12/19 09:50:13;;;;;;;;;;;8.20;99.90;;;;;;5064939;28;20416;-74
2022/12/19 09:52:43;;;;;;;;;;;8.10;99.90;;;;;;5067230;28;20404;-73
2022/12/19 09:55:12;;;;;;;;;;;8.10;99.90;;;;;;5064401;28;20023;-74
2022/12/19 09:57:40;;;;;;;;;;;8.00;99.90;;;;;;5067611;28;19933;-75
2022/12/19 10:00:07;;;;;;;;;;;8.00;99.90;;;;;;5067986;28;19935;-73
2022/12/19 10:02:38;;;;;;;;;;;7.90;99.90;;;;;;5066339;28;20530;-74
2022/12/19 10:05:11;;;;;;;;;;;8.00;99.90;;;;;;5066900;28;20468;-74
2022/12/19 10:07:37;;;;;;;;;;;8.00;99.90;;;;;;5066375;28;20549;-74
2022/12/19 10:10:06;;;;;;;;;;;8.00;99.90;;;;;;5067422;28;19924;-74
2022/12/19 10:12:42;;;;;;;;;;;8.00;99.90;;;;;;5060613;28;19932;-74
2022/12/19 10:15:13;;;;;;;;;;;8.00;99.90;;;;;;5060050;28;20922;-74
2022/12/19 10:17:52;;;;;;;;;;;8.00;99.90;;;;;;5060793;28;20058;-74
2022/12/19 10:20:25;;;;;;;;;;;8.00;99.90;;;;;;5062585;28;20022;-74
2022/12/19 10:22:59;;;;;;;;;;;8.10;99.90;;;;;;5061190;28;19947;-74
2022/12/19 10:25:33;;;;;;;;;;;8.20;99.90;;;;;;5064431;28;20016;-74
2022/12/19 10:28:05;;;;;;;;;;;8.20;99.90;;;;;;5063951;28;20555;-74
2022/12/19 10:30:33;;;;;;;;;;;8.30;99.90;;;;;;5064028;28;20051;-73
2022/12/19 10:33:04;;;;;;;;;;;8.30;99.90;;;;;;5066827;28;19932;-74
2022/12/19 10:35:32;;;;;;;;;;;8.40;99.90;;;;;;5065097;28;22348;-66
2022/12/19 10:38:05;;;;;;;;;;;8.60;99.90;;;;;;5065329;28;19956;-75
2022/12/19 10:40:34;;;;;;;;;;;8.60;99.90;;;;;;5062121;28;20383;-74
2022/12/19 10:43:06;;;;;;;;;;;8.70;99.90;;;;;;5065066;28;19936;-75
2022/12/19 10:45:36;;;;;;;;;;;8.80;99.90;;;;;;5062349;28;19932;-76
2022/12/19 10:48:04;;;;;;;;;;;8.90;99.90;;;;;;5063576;28;20015;-75
2022/12/19 10:50:30;;;;;;;;;;;9.00;99.90;;;;;;5062156;28;20352;-75
2022/12/19 10:53:06;;;;;;;;;;;9.10;99.90;;;;;;5063764;28;19936;-74
2022/12/19 10:55:37;;;;;;;;;;;9.20;99.90;;;;;;5062258;28;20323;-74
2022/12/19 10:58:11;;;;;;;;;;;9.40;99.90;;;;;;5061437;28;20032;-74
2022/12/19 11:00:45;;;;;;;;;;;9.50;99.90;;;;;;5062586;28;20411;-74
2022/12/19 11:03:13;;;;;;;;;;;9.60;99.90;;;;;;5064373;28;19928;-74
2022/12/19 11:05:42;;;;;;;;;;;9.60;99.90;;;;;;5060511;28;19928;-74
2022/12/19 11:08:13;;;;;;;;;;;9.60;99.90;;;;;;5060458;28;20011;-74
2022/12/19 11:10:43;;;;;;;;;;;9.70;99.90;;;;;;5064831;28;20299;-74
2022/12/19 11:13:18;;;;;;;;;;;9.80;99.90;;;;;;5064511;28;20283;-75
2022/12/19 11:15:49;;;;;;;;;;;9.80;99.90;;;;;;5065904;28;19924;-74
2022/12/19 11:18:16;;;;;;;;;;;9.90;99.90;;;;;;5067510;28;20307;-74
2022/12/19 11:20:53;;;;;;;;;;;10.00;99.90;;;;;;5060592;28;19934;-75
2022/12/19 11:23:20;;;;;;;;;;;10.00;99.90;;;;;;5063318;28;19979;-75
2022/12/19 11:25:53;;;;;;;;;;;10.00;99.90;;;;;;5061841;28;19932;-74
2022/12/19 11:28:22;;;;;;;;;;;10.00;99.90;;;;;;5066262;28;19997;-75
2022/12/19 11:30:55;;;;;;;;;;;10.00;99.90;;;;;;5066554;28;20312;-75
2022/12/19 11:33:21;;;;;;;;;;;10.00;99.90;;;;;;5065470;28;19929;-75
2022/12/19 11:35:49;;;;;;;;;;;10.00;99.90;;;;;;5064322;28;20306;-75
2022/12/19 11:38:17;;;;;;;;;;;10.00;99.90;;;;;;5066418;28;19924;-75
2022/12/19 11:40:45;;;;;;;;;;;10.00;99.90;;;;;;5060605;28;20001;-75
2022/12/19 11:43:15;;;;;;;;;;;10.00;99.90;;;;;;5066376;28;19924;-75
2022/12/19 11:45:48;;;;;;;;;;;10.00;99.90;;;;;;5061832;28;20015;-73
2022/12/19 11:48:17;;;;;;;;;;;10.10;99.90;;;;;;5062425;28;19928;-75
2022/12/19 11:50:49;;;;;;;;;;;10.20;99.90;;;;;;5062812;28;20063;-75
2022/12/19 11:53:19;;;;;;;;;;;10.20;99.90;;;;;;5060590;28;20022;-70
2022/12/19 11:55:50;;;;;;;;;;;10.30;99.90;;;;;;5063812;28;20395;-70
2022/12/19 11:58:18;;;;;;;;;;;10.30;99.90;;;;;;5060467;28;20080;-70
2022/12/19 12:00:49;;;;;;;;;;;10.30;99.90;;;;;;5062576;28;19970;-75
2022/12/19 12:03:31;;;;;;;;;;;10.30;99.90;;;;;;5064839;28;20023;-75
2022/12/19 12:05:58;;;;;;;;;;;10.30;99.90;;;;;;5062803;28;20060;-74
2022/12/19 12:08:39;;;;;;;;;;;10.40;99.90;;;;;;5064281;28;20019;-75
2022/12/19 12:11:13;;;;;;;;;;;10.50;99.90;;;;;;5060057;28;19928;-74
2022/12/19 12:13:46;;;;;;;;;;;10.50;99.90;;;;;;5060531;28;19932;-74
2022/12/19 12:16:15;;;;;;;;;;;10.50;99.90;;;;;;5067514;28;19924;-75
2022/12/19 12:18:55;;;;;;;;;;;10.50;99.90;;;;;;5063044;28;19954;-74
2022/12/19 12:21:23;;;;;;;;;;;10.50;99.90;;;;;;5066755;28;20023;-75
2022/12/19 12:23:59;;;;;;;;;;;10.50;99.90;;;;;;5064649;28;19960;-74
2022/12/19 12:26:27;;;;;;;;;;;10.50;99.90;;;;;;5063537;28;19928;-74
2022/12/19 12:29:01;;;;;;;;;;;10.60;99.90;;;;;;5064417;28;20023;-75
2022/12/19 12:31:33;;;;;;;;;;;10.50;99.90;;;;;;5064088;28;20556;-74
2022/12/19 12:34:04;;;;;;;;;;;10.40;99.90;;;;;;5063484;28;19932;-75
2022/12/19 12:36:36;;;;;;;;;;;10.40;99.90;;;;;;5063916;28;19932;-75
2022/12/19 12:39:03;;;;;;;;;;;10.30;99.90;;;;;;5063857;28;20100;-75
2022/12/19 12:44:22;;;;;;;;;;;10.30;99.90;;;;;;5067656;28;19935;-75
2022/12/19 12:46:49;;;;;;;;;;;10.20;99.90;;;;;;5065168;28;20023;-73
2022/12/19 12:49:28;;;;;;;;;;;10.20;99.90;;;;;;5064054;28;19932;-74
2022/12/19 12:51:55;;;;;;;;;;;10.10;99.90;;;;;;5061344;28;19924;-74
2022/12/19 12:54:28;;;;;;;;;;;10.10;99.90;;;;;;5062549;28;20648;-73
2022/12/19 12:56:55;;;;;;;;;;;10.00;99.90;;;;;;5062966;28;20019;-73
2022/12/19 12:59:27;;;;;;;;;;;10.00;99.90;;;;;;5061600;28;19932;-73
2022/12/19 13:01:55;;;;;;;;;;;10.00;99.90;;;;;;5065001;28;19928;-73
2022/12/19 13:04:26;;;;;;;;;;;9.90;99.90;;;;;;5064823;28;20394;-74
2022/12/19 13:07:03;;;;;;;;;;;9.90;99.90;;;;;;5065787;28;19933;-74
2022/12/19 13:09:31;;;;;;;;;;;9.90;99.90;;;;;;5064040;28;20053;-74
2022/12/19 13:14:48;;;;;;;;;;;9.90;99.90;;;;;;5066770;28;19951;-76
2022/12/19 13:17:19;;;;;;;;;;;9.90;99.90;;;;;;5063501;28;19924;-75
2022/12/19 13:19:53;;;;;;;;;;;9.90;99.90;;;;;;5067098;28;20421;-76
2022/12/19 13:22:22;;;;;;;;;;;10.00;99.90;;;;;;5067545;28;19924;-75
2022/12/19 13:24:50;;;;;;;;;;;10.00;99.90;;;;;;5065827;28;19930;-76
2022/12/19 13:27:34;;;;;;;;;;;10.00;99.90;;;;;;5068173;28;19931;-78
2022/12/19 13:30:13;;;;;;;;;;;10.00;99.90;;;;;;5064701;28;19939;-77
2022/12/19 13:32:55;;;;;;;;;;;10.00;99.90;;;;;;5062378;28;19936;-76
2022/12/19 13:35:33;;;;;;;;;;;10.00;99.90;;;;;;5068547;28;19924;-77
2022/12/19 13:38:01;;;;;;;;;;;10.00;99.90;;;;;;5065150;28;22260;-76
2022/12/19 13:40:30;;;;;;;;;;;10.00;99.90;;;;;;5068947;28;19975;-73
2022/12/19 13:45:51;;;;;;;;;;;10.10;99.90;;;;;;5070009;28;20005;-75
2022/12/19 13:48:25;;;;;;;;;;;10.10;99.90;;;;;;5064906;28;19932;-76
2022/12/19 13:50:52;;;;;;;;;;;10.20;99.90;;;;;;5065612;28;19932;-75
2022/12/19 13:53:20;;;;;;;;;;;10.20;99.90;;;;;;5067248;28;19939;-75
2022/12/19 13:55:46;;;;;;;;;;;10.20;99.90;;;;;;5068766;28;19924;-76
2022/12/19 13:58:21;;;;;;;;;;;10.20;99.90;;;;;;5063531;28;19932;-75
2022/12/19 14:00:47;;;;;;;;;;;10.30;99.90;;;;;;5062687;28;19932;-75
2022/12/19 14:03:17;;;;;;;;;;;10.30;99.90;;;;;;5063189;28;20575;-75
2022/12/19 14:05:43;;;;;;;;;;;10.40;99.90;;;;;;5063915;28;19932;-75
2022/12/19 14:08:15;;;;;;;;;;;10.40;99.90;;;;;;5065078;28;20807;-75
2022/12/19 14:10:44;;;;;;;;;;;10.40;99.90;;;;;;5068033;28;19935;-75
2022/12/19 14:15:58;;;;;;;;;;;10.30;99.90;;;;;;5066269;28;19989;-74
2022/12/19 14:18:27;;;;;;;;;;;10.20;99.90;;;;;;5064792;28;19931;-75
2022/12/19 14:21:07;;;;;;;;;;;10.20;99.90;;;;;;5067883;28;19932;-76
2022/12/19 14:23:34;;;;;;;;;;;10.20;99.90;;;;;;5066508;28;20419;-75
2022/12/19 14:26:01;;;;;;;;;;;10.10;99.90;;;;;;5068121;28;20488;-74
2022/12/19 14:28:35;;;;;;;;;;;10.10;99.90;;;;;;5063627;28;20326;-76
2022/12/19 14:31:05;;;;;;;;;;;10.00;99.90;;;;;;5070607;28;19951;-75
2022/12/19 14:33:34;;;;;;;;;;;9.90;99.90;;;;;;5061372;28;20371;-74
2022/12/19 14:36:02;;;;;;;;;;;10.00;99.90;;;;;;5054400;28;19932;-74
2022/12/19 14:38:31;;;;;;;;;;;9.90;99.90;;;;;;5064142;28;19934;-75
2022/12/19 14:40:58;;;;;;;;;;;10.00;99.90;;;;;;5064632;28;19932;-75
2022/12/19 14:43:42;;;;;;;;;;;10.00;99.90;;;;;;5067311;28;19932;-76
2022/12/19 14:46:13;;;;;;;;;;;9.90;99.90;;;;;;5065346;28;19924;-76
2022/12/19 14:48:49;;;;;;;;;;;9.90;99.90;;;;;;5068948;28;19928;-76
2022/12/19 14:51:21;;;;;;;;;;;9.90;99.90;;;;;;5065090;28;19925;-75
2022/12/19 14:54:05;;;;;;;;;;;9.90;99.90;;;;;;5063814;28;20055;-76